Time;durP1;ratioP1;P1;durP2;ratioP2;P2;SDS_P1;SDS_P2;PMS_P1;PMS_P2;Temp;Humidity;BMP_temperature;BMP_pressure;BME280_temperature;BME280_humidity;BME280_pressure;Samples;Min_cycle;Max_cycle;Signal;HPM_P1;HPM_P2
2023/12/10 00:00:21;;;;;;;1.38;1.15;;;17.30;61.10;;;;;;6185672;23;20213;-85
2023/12/10 00:02:52;;;;;;;1.00;0.90;;;17.30;61.20;;;;;;6135823;23;20517;-87
2023/12/10 00:05:43;;;;;;;1.88;1.10;;;17.30;61.00;;;;;;6086437;23;20154;-86
2023/12/10 00:10:44;;;;;;;1.30;1.10;;;17.30;61.10;;;;;;6186473;23;20209;-86
2023/12/10 00:13:10;;;;;;;1.52;1.20;;;17.20;61.30;;;;;;6136305;23;20142;-86
2023/12/10 00:15:39;;;;;;;1.25;1.10;;;17.30;61.40;;;;;;6135614;23;20153;-85
2023/12/10 00:18:05;;;;;;;1.55;1.05;;;17.20;61.40;;;;;;6161380;23;20206;-86
2023/12/10 00:20:31;;;;;;;1.35;1.13;;;17.20;61.40;;;;;;6160085;23;20131;-86
2023/12/10 00:22:57;;;;;;;1.30;1.02;;;17.20;61.40;;;;;;6135485;23;20154;-85
2023/12/10 00:25:26;;;;;;;1.42;1.25;;;17.30;61.40;;;;;;6160759;23;20158;-86
2023/12/10 00:27:54;;;;;;;1.23;1.10;;;17.20;61.00;;;;;;6136251;23;20174;-87
2023/12/10 00:30:20;;;;;;;1.60;1.08;;;17.20;61.40;;;;;;6160603;23;20141;-86
2023/12/10 00:32:46;;;;;;;1.27;1.10;;;17.20;61.40;;;;;;6135631;23;20225;-86
2023/12/10 00:35:12;;;;;;;2.00;1.30;;;17.20;61.60;;;;;;6160920;23;20130;-86
2023/12/10 00:37:38;;;;;;;1.23;1.10;;;17.10;61.40;;;;;;6136146;23;20174;-85
2023/12/10 00:47:52;;;;;;;1.58;1.33;;;17.20;61.20;;;;;;6186481;23;20787;-85
2023/12/10 00:50:24;;;;;;;1.90;1.27;;;17.20;61.40;;;;;;6135711;23;20599;-86
2023/12/10 00:53:02;;;;;;;1.58;1.35;;;17.20;61.40;;;;;;6136668;23;20178;-85
2023/12/10 00:55:28;;;;;;;1.70;1.23;;;17.20;61.20;;;;;;6064077;23;20182;-85
2023/12/10 00:57:54;;;;;;;1.42;1.13;;;17.20;61.30;;;;;;6162314;23;20181;-86
2023/12/10 01:00:22;;;;;;;2.03;1.40;;;17.20;61.00;;;;;;6137658;23;20181;-86
2023/12/10 01:02:56;;;;;;;1.92;1.38;;;17.20;61.40;;;;;;6138219;23;20155;-86
2023/12/10 01:05:31;;;;;;;1.17;1.08;;;17.20;61.20;;;;;;6089417;23;20165;-87
2023/12/10 01:07:57;;;;;;;1.20;0.98;;;17.10;61.40;;;;;;6087695;23;20176;-87
2023/12/10 01:10:34;;;;;;;1.15;1.00;;;17.10;61.30;;;;;;6137930;23;20150;-86
2023/12/10 01:13:00;;;;;;;1.27;1.17;;;17.10;61.30;;;;;;6059926;23;20158;-87
2023/12/10 01:15:30;;;;;;;1.33;1.00;;;17.10;61.40;;;;;;6138206;23;20151;-87
2023/12/10 01:22:58;;;;;;;1.20;1.10;;;17.10;61.50;;;;;;6189364;23;20214;-85
2023/12/10 01:25:27;;;;;;;1.52;1.20;;;17.10;61.50;;;;;;6138037;23;20167;-86
2023/12/10 01:27:54;;;;;;;1.35;1.15;;;17.20;61.20;;;;;;6137886;23;20609;-86
2023/12/10 01:30:23;;;;;;;1.52;1.17;;;17.10;61.30;;;;;;6137964;23;20142;-85
2023/12/10 01:32:56;;;;;;;1.58;1.20;;;17.10;61.00;;;;;;6138954;23;20154;-85
2023/12/10 01:35:22;;;;;;;1.52;1.30;;;17.20;61.40;;;;;;6089242;23;20157;-86
2023/12/10 01:37:48;;;;;;;2.10;1.23;;;17.10;61.40;;;;;;6138169;23;20186;-86
2023/12/10 01:40:14;;;;;;;1.45;1.20;;;17.10;61.50;;;;;;6138830;23;20217;-87
2023/12/10 01:42:45;;;;;;;1.73;1.30;;;17.10;61.30;;;;;;6137247;23;20593;-87
2023/12/10 01:45:12;;;;;;;2.58;1.42;;;17.10;61.40;;;;;;6088426;23;20590;-86
2023/12/10 01:47:41;;;;;;;1.90;1.05;;;17.10;61.40;;;;;;6138539;23;20151;-87
2023/12/10 01:50:09;;;;;;;1.40;1.30;;;17.00;61.20;;;;;;6162735;23;20158;-86
2023/12/10 01:52:37;;;;;;;1.65;1.35;;;17.00;61.30;;;;;;6138442;23;20285;-85
2023/12/10 01:55:06;;;;;;;2.03;1.60;;;17.20;61.20;;;;;;6114409;23;20286;-87
2023/12/10 02:02:47;;;;;;;1.52;1.27;;;17.00;61.20;;;;;;6188911;23;20202;-85
2023/12/10 02:05:17;;;;;;;1.83;1.30;;;17.00;61.30;;;;;;6137256;23;20217;-86
2023/12/10 02:07:44;;;;;;;1.60;1.30;;;17.10;61.50;;;;;;6112725;23;20155;-86
2023/12/10 02:10:11;;;;;;;2.15;1.50;;;17.00;61.30;;;;;;6138143;23;20150;-86
2023/12/10 02:12:39;;;;;;;1.33;1.20;;;17.10;61.20;;;;;;6163743;23;20135;-87
2023/12/10 02:15:17;;;;;;;1.45;1.30;;;17.10;61.20;;;;;;6138773;23;20150;-86
2023/12/10 02:17:45;;;;;;;1.30;1.10;;;17.10;61.40;;;;;;6138585;23;20233;-87
2023/12/10 02:20:14;;;;;;;1.70;1.42;;;17.10;61.10;;;;;;6138113;23;20195;-86
2023/12/10 02:33:38;;;;;;;1.65;1.40;;;17.00;61.20;;;;;;6188012;23;20429;-88
2023/12/10 02:36:04;;;;;;;1.65;1.40;;;17.10;61.30;;;;;;6137513;23;20178;-87
2023/12/10 02:41:10;;;;;;;1.35;1.25;;;17.00;61.10;;;;;;6161311;23;20213;-87
2023/12/10 02:43:36;;;;;;;1.75;1.50;;;17.00;61.80;;;;;;6048973;23;20496;-86
2023/12/10 02:46:04;;;;;;;1.58;1.48;;;17.00;61.10;;;;;;6073195;23;20153;-86
2023/12/10 02:48:33;;;;;;;2.03;1.42;;;16.90;61.10;;;;;;6049563;23;20168;-86
2023/12/10 02:51:05;;;;;;;2.53;1.50;;;17.00;61.00;;;;;;6074227;23;20211;-86
2023/12/10 02:56:09;;;;;;;1.52;1.30;;;17.00;61.30;;;;;;6187234;23;20202;-85
2023/12/10 02:58:35;;;;;;;1.35;1.20;;;17.00;61.20;;;;;;6137997;23;20181;-86
2023/12/10 03:01:09;;;;;;;2.20;1.40;;;17.00;61.10;;;;;;6137137;23;20482;-87
2023/12/10 03:03:49;;;;;;;1.58;1.42;;;17.00;61.20;;;;;;6162000;23;20465;-84
2023/12/10 03:06:18;;;;;;;1.70;1.40;;;17.10;61.30;;;;;;6136807;23;20651;-86
2023/12/10 03:08:45;;;;;;;1.98;1.50;;;17.00;61.10;;;;;;6136566;23;20143;-86
2023/12/10 03:18:50;;;;;;;2.20;1.50;;;17.00;61.20;;;;;;6186260;23;20209;-85
2023/12/10 03:21:20;;;;;;;1.70;1.45;;;17.00;61.00;;;;;;6137140;23;20225;-86
2023/12/10 03:23:48;;;;;;;1.90;1.70;;;17.00;61.00;;;;;;6111843;23;20489;-86
2023/12/10 03:26:16;;;;;;;2.45;1.40;;;17.00;61.10;;;;;;6136983;23;20146;-86
2023/12/10 03:28:41;;;;;;;1.80;1.33;;;17.00;61.20;;;;;;6160735;23;20139;-87
2023/12/10 03:31:08;;;;;;;1.67;1.42;;;17.00;61.10;;;;;;6160857;23;20443;-86
2023/12/10 03:33:38;;;;;;;1.73;1.60;;;17.00;61.20;;;;;;6137087;23;20143;-86
2023/12/10 03:36:06;;;;;;;1.90;1.40;;;16.90;61.10;;;;;;6087990;23;20193;-86
2023/12/10 03:38:35;;;;;;;1.77;1.33;;;17.00;61.30;;;;;;6137030;23;20175;-85
2023/12/10 03:41:05;;;;;;;1.58;1.30;;;17.00;61.10;;;;;;6136604;23;20205;-85
2023/12/10 03:43:32;;;;;;;2.40;1.73;;;17.00;61.10;;;;;;6112103;23;20151;-87
2023/12/10 03:46:04;;;;;;;2.03;1.63;;;17.00;61.20;;;;;;6136912;23;20162;-86
2023/12/10 03:48:31;;;;;;;1.92;1.40;;;17.00;60.90;;;;;;6136761;23;20197;-87
2023/12/10 03:50:57;;;;;;;1.73;1.40;;;17.00;60.90;;;;;;6136605;23;20143;-86
2023/12/10 03:53:22;;;;;;;1.70;1.40;;;17.00;61.00;;;;;;6137177;23;20138;-86
2023/12/10 03:55:48;;;;;;;1.70;1.50;;;17.00;61.00;;;;;;6136943;23;20147;-85
2023/12/10 03:58:15;;;;;;;1.45;1.17;;;17.00;61.20;;;;;;6162371;23;20139;-86
2023/12/10 04:00:44;;;;;;;1.88;1.58;;;17.10;60.80;;;;;;6162041;23;20233;-87
2023/12/10 04:03:10;;;;;;;1.75;1.40;;;17.00;61.00;;;;;;6161953;23;20138;-86
2023/12/10 04:05:39;;;;;;;2.00;1.38;;;17.00;60.80;;;;;;6137531;23;20146;-87
2023/12/10 04:08:09;;;;;;;2.15;1.60;;;17.00;60.90;;;;;;6088500;23;20529;-86
2023/12/10 04:10:35;;;;;;;1.70;1.33;;;17.00;61.00;;;;;;6137346;23;20139;-86
2023/12/10 04:13:07;;;;;;;1.95;1.52;;;17.00;61.00;;;;;;6137788;23;20150;-86
2023/12/10 04:15:34;;;;;;;1.98;1.65;;;17.00;60.80;;;;;;6111542;23;20533;-86
2023/12/10 04:18:07;;;;;;;1.95;1.33;;;17.00;60.70;;;;;;6150235;23;20202;-87
2023/12/10 04:20:35;;;;;;;1.83;1.45;;;17.00;60.90;;;;;;6135961;23;20158;-87
2023/12/10 04:23:00;;;;;;;1.95;1.45;;;17.00;61.00;;;;;;6161022;23;20143;-86
2023/12/10 04:25:28;;;;;;;1.90;1.40;;;17.00;61.00;;;;;;6162248;23;20199;-87
2023/12/10 04:27:56;;;;;;;1.88;1.40;;;16.90;61.00;;;;;;6135751;23;20159;-87
2023/12/10 04:30:24;;;;;;;1.83;1.50;;;16.90;61.10;;;;;;6161080;23;20135;-87
2023/12/10 04:32:51;;;;;;;1.40;1.30;;;16.90;61.10;;;;;;6161811;23;20139;-87
2023/12/10 04:35:27;;;;;;;1.60;1.45;;;16.90;60.90;;;;;;6186743;23;20131;-87
2023/12/10 04:37:53;;;;;;;1.95;1.45;;;16.90;61.00;;;;;;6160614;23;20720;-88
2023/12/10 04:40:29;;;;;;;1.75;1.45;;;17.00;61.00;;;;;;6186232;23;20135;-87
2023/12/10 04:42:56;;;;;;;1.50;1.40;;;16.90;61.00;;;;;;6186642;23;20135;-87
2023/12/10 04:45:22;;;;;;;1.92;1.48;;;16.90;61.10;;;;;;6186474;23;20131;-87
2023/12/10 04:47:48;;;;;;;3.15;1.80;;;16.90;61.00;;;;;;6186212;23;20143;-87
2023/12/10 04:50:18;;;;;;;1.85;1.52;;;16.90;60.90;;;;;;6162173;23;20143;-87
2023/12/10 04:55:13;;;;;;;2.35;1.63;;;16.90;60.80;;;;;;6162952;23;20200;-87
2023/12/10 04:57:39;;;;;;;2.33;1.70;;;16.90;60.90;;;;;;6161648;23;20186;-87
2023/12/10 05:00:08;;;;;;;1.75;1.48;;;16.90;60.90;;;;;;6161345;23;20147;-86
2023/12/10 05:02:38;;;;;;;2.72;1.73;;;16.90;60.80;;;;;;6185985;23;20147;-86
2023/12/10 05:05:09;;;;;;;1.75;1.50;;;17.00;60.90;;;;;;6161305;23;20143;-86
2023/12/10 05:07:35;;;;;;;1.67;1.40;;;17.00;60.90;;;;;;6186452;23;20527;-86
2023/12/10 05:10:01;;;;;;;1.88;1.73;;;16.90;60.70;;;;;;6160647;23;20477;-85
2023/12/10 05:12:29;;;;;;;1.80;1.30;;;17.00;60.90;;;;;;6160908;23;20602;-86
2023/12/10 05:14:55;;;;;;;2.28;1.70;;;16.90;60.70;;;;;;6161666;23;20234;-85
2023/12/10 05:17:21;;;;;;;2.88;1.90;;;16.90;60.70;;;;;;6160765;23;20617;-86
2023/12/10 05:25:45;;;;;;;1.90;1.67;;;16.90;60.70;;;;;;6162741;23;20687;-86
2023/12/10 05:28:11;;;;;;;2.58;1.58;;;16.90;60.70;;;;;;6082369;23;20164;-88
2023/12/10 05:30:41;;;;;;;1.92;1.52;;;16.90;60.80;;;;;;6103023;23;20133;-86
2023/12/10 05:35:44;;;;;;;2.80;1.95;;;16.90;60.70;;;;;;6178628;23;20213;-87
2023/12/10 05:41:32;;;;;;;2.42;1.70;;;16.90;60.70;;;;;;6182306;23;20213;-85
2023/12/10 05:43:59;;;;;;;1.65;1.40;;;16.90;60.70;;;;;;6162736;23;20151;-85
2023/12/10 05:46:25;;;;;;;2.70;1.80;;;16.90;60.60;;;;;;6138286;23;20313;-86
2023/12/10 05:48:52;;;;;;;2.45;1.60;;;16.90;60.70;;;;;;6163355;23;20135;-87
2023/12/10 05:51:18;;;;;;;2.10;1.50;;;16.90;60.70;;;;;;6138429;23;20143;-85
2023/12/10 05:53:45;;;;;;;2.00;1.55;;;16.90;60.70;;;;;;6168594;23;20154;-85
2023/12/10 05:56:11;;;;;;;2.97;1.83;;;16.90;60.80;;;;;;6147620;23;20174;-88
2023/12/10 05:58:44;;;;;;;2.22;1.67;;;16.90;60.70;;;;;;6146302;23;20150;-86
2023/12/10 06:01:15;;;;;;;1.98;1.48;;;16.90;60.80;;;;;;6145259;23;20147;-86
2023/12/10 06:03:41;;;;;;;2.72;1.65;;;16.90;60.70;;;;;;6146038;23;20142;-86
2023/12/10 06:06:08;;;;;;;1.95;1.60;;;16.80;60.70;;;;;;6145801;23;20179;-86
2023/12/10 06:14:09;;;;;;;1.60;1.50;;;16.90;60.80;;;;;;6172084;23;20530;-88
2023/12/10 06:16:38;;;;;;;1.70;1.38;;;16.90;60.70;;;;;;6111615;23;20175;-87
2023/12/10 06:24:14;;;;;;;2.22;1.70;;;16.90;60.50;;;;;;6161677;23;20202;-85
2023/12/10 06:26:45;;;;;;;2.70;1.77;;;16.90;60.70;;;;;;6088417;23;20148;-85
2023/12/10 06:31:46;;;;;;;2.75;1.80;;;16.90;60.50;;;;;;6162549;23;20213;-88
2023/12/10 06:34:12;;;;;;;2.42;1.63;;;16.90;60.70;;;;;;6091966;23;20512;-88
2023/12/10 06:36:38;;;;;;;2.65;1.90;;;16.90;60.60;;;;;;6087364;23;20176;-88
2023/12/10 06:39:11;;;;;;;2.53;1.85;;;16.90;60.30;;;;;;6089014;23;20140;-87
2023/12/10 06:41:40;;;;;;;3.15;2.15;;;16.90;60.70;;;;;;6063135;23;20596;-87
2023/12/10 06:44:09;;;;;;;2.85;1.90;;;16.90;60.70;;;;;;6112804;23;20140;-87
2023/12/10 06:46:41;;;;;;;2.53;1.88;;;16.90;60.50;;;;;;6087539;23;20148;-88
2023/12/10 06:54:13;;;;;;;2.38;1.70;;;16.90;60.50;;;;;;6162856;23;20291;-86
2023/12/10 06:56:48;;;;;;;2.13;1.60;;;16.90;60.60;;;;;;6109454;23;20172;-86
2023/12/10 06:59:19;;;;;;;2.90;1.73;;;16.90;60.50;;;;;;6112818;23;20650;-86
2023/12/10 07:01:45;;;;;;;2.85;2.13;;;16.90;60.70;;;;;;6107665;23;20478;-87
2023/12/10 07:04:19;;;;;;;2.83;2.00;;;16.90;60.30;;;;;;6087107;23;20143;-86
2023/12/10 07:06:45;;;;;;;2.42;1.88;;;16.90;60.50;;;;;;6131717;23;20163;-86
2023/12/10 07:17:34;;;;;;;2.97;1.85;;;16.90;60.50;;;;;;5083658;27;1504891;-87
2023/12/10 07:20:03;;;;;;;2.20;1.70;;;16.90;60.40;;;;;;5080162;28;20168;-86
2023/12/10 07:22:35;;;;;;;3.00;2.00;;;16.90;60.50;;;;;;5064125;28;20657;-87
2023/12/10 07:35:29;;;;;;;2.75;1.98;;;16.90;60.40;;;;;;5012708;23;20230;-85
2023/12/10 07:37:56;;;;;;;2.30;1.67;;;16.90;60.50;;;;;;4963415;28;20190;-86
2023/12/10 07:40:25;;;;;;;2.45;1.80;;;16.80;60.40;;;;;;4997856;28;20160;-86
2023/12/10 07:43:00;;;;;;;2.10;1.83;;;16.80;60.40;;;;;;4981181;28;20210;-86
2023/12/10 07:45:36;;;;;;;2.55;2.00;;;16.90;60.50;;;;;;5153219;23;20589;-85
2023/12/10 07:48:06;;;;;;;2.67;1.83;;;16.90;60.10;;;;;;4983630;28;20629;-85
2023/12/10 07:50:38;;;;;;;2.17;1.92;;;16.90;60.40;;;;;;4998847;28;20721;-86
2023/12/10 07:53:09;;;;;;;2.03;1.58;;;16.90;61.20;;;;;;4982402;28;20179;-86
2023/12/10 07:55:41;;;;;;;2.72;1.95;;;16.90;60.50;;;;;;4983155;28;20561;-86
2023/12/10 07:58:22;;;;;;;3.15;2.05;;;16.90;60.40;;;;;;4985677;28;20187;-86
2023/12/10 08:00:55;;;;;;;2.67;1.90;;;16.90;60.00;;;;;;4972638;28;20178;-87
2023/12/10 08:03:34;;;;;;;2.70;2.10;;;17.00;60.00;;;;;;4961013;28;20266;-87
2023/12/10 08:06:25;;;;;;;2.60;2.00;;;16.90;60.10;;;;;;4958840;28;20180;-86
2023/12/10 08:09:05;;;;;;;2.65;2.15;;;17.00;59.70;;;;;;4963575;28;20267;-85
2023/12/10 08:11:36;;;;;;;3.00;2.08;;;17.10;59.90;;;;;;4943266;29;20185;-84
2023/12/10 08:14:48;;;;;;;2.72;1.65;;;17.10;59.20;;;;;;4945701;29;20212;-86
2023/12/10 08:17:40;;;;;;;2.97;2.08;;;17.20;59.10;;;;;;4900187;29;20192;-85
2023/12/10 08:20:19;;;;;;;2.78;2.05;;;17.30;58.90;;;;;;4905381;29;20187;-85
2023/12/10 08:23:31;;;;;;;2.83;1.77;;;17.30;59.10;;;;;;4903915;29;20262;-87
2023/12/10 08:26:25;;;;;;;2.47;1.88;;;17.40;58.80;;;;;;4863919;29;20193;-84
2023/12/10 08:28:55;;;;;;;4.03;1.92;;;17.40;59.50;;;;;;4802868;30;20275;-84
2023/12/10 08:45:02;;;;;;;4.35;2.20;;;17.50;58.40;;;;;;5037772;22;20251;-83
2023/12/10 08:47:37;;;;;;;4.72;2.30;;;17.50;58.40;;;;;;4994986;28;20220;-85
2023/12/10 08:50:08;;;;;;;4.03;2.30;;;17.50;58.10;;;;;;4975311;28;20163;-86
2023/12/10 08:52:55;;;;;;;4.38;2.17;;;17.50;58.50;;;;;;4991474;28;20179;-87
2023/12/10 08:55:39;;;;;;;4.43;2.60;;;17.60;58.20;;;;;;4992524;28;20290;-87
2023/12/10 08:58:43;;;;;;;;;;;;;;;;;;;;;
2023/12/10 09:01:10;;;;;;;7.70;2.80;;;17.60;58.60;;;;;;4976820;28;20208;-84
2023/12/10 09:03:45;;;;;;;5.75;2.40;;;17.60;57.90;;;;;;4990260;28;20168;-87
2023/12/10 09:06:23;;;;;;;5.18;2.80;;;17.70;57.80;;;;;;4970080;28;20233;-85
2023/12/10 09:08:51;;;;;;;4.90;2.90;;;17.80;57.70;;;;;;4982412;28;20243;-84
2023/12/10 09:11:40;;;;;;;3.97;2.22;;;17.70;57.60;;;;;;4982726;28;20164;-83
2023/12/10 09:14:07;;;;;;;7.72;2.70;;;17.80;57.70;;;;;;4970051;28;20179;-84
2023/12/10 09:16:37;;;;;;;3.90;2.40;;;17.80;58.00;;;;;;4985784;28;20188;-86
2023/12/10 09:19:16;;;;;;;7.30;2.65;;;17.80;57.70;;;;;;4969617;28;20219;-84
2023/12/10 09:21:45;;;;;;;6.90;2.83;;;17.80;57.60;;;;;;4971553;28;20250;-85
2023/12/10 09:24:13;;;;;;;6.55;2.58;;;17.90;57.30;;;;;;4989077;28;20170;-86
2023/12/10 09:26:42;;;;;;;7.80;2.65;;;17.90;57.50;;;;;;4971842;28;20179;-85
2023/12/10 09:29:26;;;;;;;;;;;;;;;;;;;;;
2023/12/10 09:31:56;;;;;;;5.97;2.83;;;17.90;57.50;;;;;;4956743;28;20256;-85
2023/12/10 09:34:37;;;;;;;5.35;2.60;;;17.90;57.60;;;;;;4991354;28;20167;-86
2023/12/10 09:37:13;;;;;;;7.72;2.33;;;17.90;57.30;;;;;;4938718;28;20214;-86
2023/12/10 09:40:05;;;;;;;5.45;2.70;;;17.90;57.90;;;;;;5002869;28;20643;-86
2023/12/10 09:42:37;;;;;;;15.90;2.75;;;17.90;58.00;;;;;;4973632;28;20206;-86
2023/12/10 09:45:16;;;;;;;11.57;2.80;;;17.90;57.60;;;;;;4965706;29;20244;-86
2023/12/10 09:47:46;;;;;;;14.70;3.28;;;17.90;57.50;;;;;;4938759;29;20165;-86
2023/12/10 09:50:30;;;;;;;7.43;2.50;;;18.00;57.50;;;;;;4948286;29;20637;-86
2023/12/10 09:53:07;;;;;;;9.70;2.75;;;18.00;57.90;;;;;;4966413;29;20666;-86
2023/12/10 09:55:41;;;;;;;14.20;3.00;;;18.00;57.90;;;;;;4967753;29;20200;-83
2023/12/10 09:58:10;;;;;;;15.77;3.40;;;18.00;58.20;;;;;;4979263;28;20192;-84
2023/12/10 10:00:37;;;;;;;15.93;3.15;;;17.90;58.60;;;;;;4929325;29;20182;-84
2023/12/10 10:03:06;;;;;;;10.35;2.95;;;17.90;58.30;;;;;;4930384;29;20297;-85
2023/12/10 10:05:37;;;;;;;13.00;3.33;;;18.00;58.30;;;;;;4904014;29;20201;-87
2023/12/10 10:08:09;;;;;;;16.20;3.40;;;17.90;58.90;;;;;;4898711;29;20181;-87
2023/12/10 10:10:38;;;;;;;10.43;3.05;;;17.90;58.70;;;;;;4877391;29;20190;-86
2023/12/10 10:13:09;;;;;;;15.30;3.08;;;18.00;58.30;;;;;;4907384;29;20182;-86
2023/12/10 10:15:37;;;;;;;10.20;2.90;;;18.00;57.80;;;;;;4907508;29;20210;-86
2023/12/10 10:18:09;;;;;;;10.82;3.28;;;18.00;56.80;;;;;;4909100;29;20318;-85
2023/12/10 10:20:42;;;;;;;13.50;2.60;;;18.00;58.20;;;;;;4896970;29;20676;-85
2023/12/10 10:23:08;;;;;;;9.82;3.10;;;17.90;58.50;;;;;;4896413;29;20225;-86
2023/12/10 10:25:34;;;;;;;14.93;3.05;;;17.90;58.00;;;;;;4911326;29;20209;-85
2023/12/10 10:28:06;;;;;;;10.95;3.28;;;17.90;58.00;;;;;;4911746;29;20644;-85
2023/12/10 10:30:34;;;;;;;21.80;3.25;;;17.90;56.60;;;;;;4895199;29;20186;-85
2023/12/10 10:33:01;;;;;;;10.40;3.35;;;18.00;58.20;;;;;;4961426;29;20178;-88
2023/12/10 10:35:28;;;;;;;7.30;3.08;;;18.00;57.30;;;;;;4944370;29;20545;-84
2023/12/10 10:37:55;;;;;;;11.32;3.42;;;17.90;56.70;;;;;;4959914;28;20166;-85
2023/12/10 10:40:27;;;;;;;11.00;3.13;;;17.90;57.90;;;;;;4942918;29;20540;-87
2023/12/10 10:42:53;;;;;;;9.60;3.05;;;18.00;57.50;;;;;;4975678;28;20158;-85
2023/12/10 10:45:18;;;;;;;10.80;3.13;;;17.90;58.00;;;;;;4958246;29;20221;-85
2023/12/10 10:47:49;;;;;;;8.55;3.03;;;18.00;58.10;;;;;;4943462;29;20196;-85
2023/12/10 10:50:21;;;;;;;13.38;2.95;;;18.00;58.40;;;;;;4948870;28;20212;-86
2023/12/10 10:52:57;;;;;;;6.88;2.97;;;18.00;59.30;;;;;;4963784;29;20280;-86
2023/12/10 10:55:28;;;;;;;11.95;3.03;;;18.10;59.10;;;;;;4929472;29;20285;-85
2023/12/10 10:57:58;;;;;;;11.77;3.08;;;18.00;58.30;;;;;;4927486;29;20531;-85
2023/12/10 11:00:35;;;;;;;10.48;2.90;;;18.00;58.50;;;;;;4929048;29;20176;-86
2023/12/10 11:03:02;;;;;;;7.95;2.65;;;18.00;58.80;;;;;;4928849;29;20204;-85
2023/12/10 11:05:34;;;;;;;12.15;2.60;;;18.00;59.20;;;;;;4933641;29;20269;-86
2023/12/10 11:08:00;;;;;;;9.82;3.00;;;18.00;57.90;;;;;;4930276;29;20329;-85
2023/12/10 11:10:26;;;;;;;13.55;2.90;;;18.00;57.60;;;;;;4928781;29;20205;-86
2023/12/10 11:12:57;;;;;;;5.88;2.85;;;18.00;58.90;;;;;;4930213;29;20232;-85
2023/12/10 11:15:24;;;;;;;10.35;3.17;;;18.00;58.20;;;;;;4930716;29;20701;-85
2023/12/10 11:18:01;;;;;;;10.60;2.67;;;18.10;58.90;;;;;;4928814;29;20241;-86
2023/12/10 11:20:40;;;;;;;6.65;2.65;;;18.00;58.20;;;;;;4905970;29;20205;-86
2023/12/10 11:23:07;;;;;;;7.43;2.55;;;18.10;58.10;;;;;;4878646;29;20186;-86
2023/12/10 11:25:34;;;;;;;9.50;3.20;;;18.00;57.90;;;;;;4906494;29;20182;-85
2023/12/10 11:28:11;;;;;;;11.68;2.88;;;18.00;58.10;;;;;;4921923;29;20166;-85
2023/12/10 11:30:37;;;;;;;10.60;2.65;;;18.10;57.90;;;;;;4923573;29;20215;-84
2023/12/10 11:33:07;;;;;;;5.93;2.67;;;18.10;57.90;;;;;;4924085;29;20174;-85
2023/12/10 11:35:36;;;;;;;7.68;2.95;;;18.20;57.30;;;;;;4922669;29;20216;-86
2023/12/10 11:38:04;;;;;;;7.07;2.90;;;18.10;57.90;;;;;;4905070;29;20624;-84
2023/12/10 11:40:33;;;;;;;12.75;2.60;;;18.10;58.20;;;;;;4907832;29;20221;-85
2023/12/10 11:43:07;;;;;;;6.32;2.20;;;18.10;58.30;;;;;;4921581;29;20171;-84
2023/12/10 11:45:38;;;;;;;6.13;2.60;;;18.00;58.70;;;;;;4920641;29;20584;-84
2023/12/10 11:48:04;;;;;;;4.38;2.50;;;18.00;59.00;;;;;;4905820;29;20270;-86
2023/12/10 11:50:32;;;;;;;10.02;3.08;;;18.00;59.00;;;;;;4922607;29;20182;-85
2023/12/10 11:52:58;;;;;;;12.35;2.80;;;18.00;59.00;;;;;;4921888;29;20158;-85
2023/12/10 11:55:24;;;;;;;5.90;2.78;;;18.00;59.50;;;;;;4930093;29;20200;-85
2023/12/10 11:57:50;;;;;;;7.30;2.60;;;18.00;58.60;;;;;;4926862;29;20193;-85
2023/12/10 12:00:18;;;;;;;5.18;2.70;;;18.00;58.60;;;;;;4943574;29;20587;-84
2023/12/10 12:02:46;;;;;;;5.20;2.40;;;18.10;57.60;;;;;;4963460;28;20158;-85
2023/12/10 12:05:14;;;;;;;6.40;2.53;;;18.10;58.70;;;;;;4951254;29;20240;-85
2023/12/10 12:07:47;;;;;;;5.15;2.60;;;18.00;58.90;;;;;;4952183;29;20154;-86
2023/12/10 12:10:13;;;;;;;6.10;2.67;;;18.10;57.90;;;;;;4950759;29;20684;-85
2023/12/10 12:12:43;;;;;;;5.85;2.50;;;18.00;58.10;;;;;;4919857;29;20187;-85
2023/12/10 12:15:14;;;;;;;4.88;2.60;;;18.10;58.80;;;;;;4935036;29;20715;-85
2023/12/10 12:17:45;;;;;;;6.05;2.60;;;18.10;58.40;;;;;;4934987;29;20290;-86
2023/12/10 12:20:16;;;;;;;6.60;3.30;;;18.10;57.70;;;;;;4933531;29;20244;-86
2023/12/10 12:22:43;;;;;;;6.40;2.58;;;18.10;57.80;;;;;;4932556;29;20201;-86
2023/12/10 12:25:09;;;;;;;5.10;2.30;;;18.10;57.90;;;;;;4932124;29;20177;-85
2023/12/10 12:27:35;;;;;;;5.60;2.60;;;18.20;58.10;;;;;;4929932;29;20233;-85
2023/12/10 12:30:06;;;;;;;6.35;2.70;;;18.10;58.50;;;;;;4907461;29;20193;-87
2023/12/10 12:32:33;;;;;;;7.00;2.17;;;18.10;58.90;;;;;;4948899;29;20212;-86
2023/12/10 12:35:04;;;;;;;6.28;2.85;;;18.10;58.70;;;;;;4949085;29;20225;-86
2023/12/10 12:37:29;;;;;;;8.23;2.55;;;18.00;58.30;;;;;;4948316;29;20190;-85
2023/12/10 12:39:56;;;;;;;5.70;2.53;;;18.10;59.00;;;;;;4946984;29;20201;-85
2023/12/10 12:42:27;;;;;;;4.75;2.15;;;18.00;59.00;;;;;;4949959;29;20276;-85
2023/12/10 12:44:53;;;;;;;5.57;2.60;;;18.00;59.10;;;;;;4947171;29;20228;-85
2023/12/10 12:47:23;;;;;;;4.45;2.50;;;18.00;58.50;;;;;;4947630;29;20249;-86
2023/12/10 12:49:48;;;;;;;3.70;2.53;;;18.00;58.50;;;;;;4928208;29;20182;-85
2023/12/10 12:52:15;;;;;;;5.40;2.50;;;18.10;57.90;;;;;;4942496;29;20172;-85
2023/12/10 12:54:41;;;;;;;4.38;2.17;;;18.10;58.80;;;;;;4958327;28;20631;-86
2023/12/10 12:57:11;;;;;;;7.28;2.25;;;18.00;58.70;;;;;;4977357;28;20196;-85
2023/12/10 12:59:38;;;;;;;6.28;2.78;;;18.00;58.50;;;;;;4927956;29;20287;-86
2023/12/10 13:02:05;;;;;;;4.07;2.50;;;18.10;57.80;;;;;;4974158;28;20180;-86
2023/12/10 13:04:34;;;;;;;6.55;2.45;;;18.10;58.10;;;;;;4929197;29;20162;-85
2023/12/10 13:07:01;;;;;;;6.65;2.83;;;18.10;58.60;;;;;;4945845;29;20503;-86
2023/12/10 13:09:28;;;;;;;4.05;2.38;;;18.10;58.90;;;;;;4927681;29;20165;-85
2023/12/10 13:11:56;;;;;;;6.28;2.78;;;18.10;58.20;;;;;;4929001;29;20230;-85
2023/12/10 13:14:25;;;;;;;7.25;2.28;;;18.10;58.20;;;;;;4929628;29;20193;-85
2023/12/10 13:19:26;;;;;;;6.90;2.55;;;18.10;58.80;;;;;;5732368;23;20247;-85
2023/12/10 13:21:56;;;;;;;4.90;2.70;;;18.20;58.70;;;;;;5003174;28;20541;-85
2023/12/10 13:24:26;;;;;;;5.28;2.30;;;18.10;59.00;;;;;;4993995;28;20188;-86
2023/12/10 13:26:57;;;;;;;5.22;2.30;;;18.10;58.50;;;;;;4954190;28;20222;-85
2023/12/10 13:29:23;;;;;;;6.65;2.33;;;18.10;58.80;;;;;;5007701;28;20161;-86
2023/12/10 13:31:58;;;;;;;3.95;2.60;;;18.10;58.70;;;;;;4991548;28;20673;-86
2023/12/10 13:34:30;;;;;;;4.88;2.78;;;18.10;58.00;;;;;;4989416;28;20180;-86
2023/12/10 13:36:55;;;;;;;3.78;2.17;;;18.10;58.20;;;;;;4985135;28;20212;-87
2023/12/10 13:39:30;;;;;;;5.10;2.30;;;18.20;58.50;;;;;;4986790;28;20200;-86
2023/12/10 13:42:12;;;;;;;4.75;2.03;;;18.20;58.00;;;;;;4988477;28;20195;-86
2023/12/10 13:44:37;;;;;;;3.53;2.42;;;18.20;57.80;;;;;;4969598;28;20196;-86
2023/12/10 13:47:05;;;;;;;6.43;2.63;;;18.30;57.90;;;;;;4967099;28;20188;-86
2023/12/10 13:49:31;;;;;;;7.47;2.50;;;18.20;57.20;;;;;;4919353;28;20181;-86
2023/12/10 13:52:05;;;;;;;4.82;2.58;;;18.20;57.50;;;;;;4934863;28;20199;-86
2023/12/10 13:54:32;;;;;;;4.43;2.30;;;18.10;58.50;;;;;;4948631;28;20282;-86
2023/12/10 13:57:03;;;;;;;3.90;2.00;;;18.10;58.10;;;;;;4934176;28;20263;-85
2023/12/10 13:59:38;;;;;;;5.15;2.33;;;18.20;58.10;;;;;;4948102;28;20183;-85
2023/12/10 14:02:12;;;;;;;5.15;2.50;;;18.10;59.40;;;;;;4955380;28;20184;-85
2023/12/10 14:04:48;;;;;;;4.93;2.42;;;18.10;59.00;;;;;;4941749;28;20270;-87
2023/12/10 14:07:21;;;;;;;6.32;2.42;;;18.10;59.20;;;;;;4930905;29;20186;-85
2023/12/10 14:09:53;;;;;;;3.42;2.30;;;18.10;57.20;;;;;;4945434;29;20197;-86
2023/12/10 14:12:30;;;;;;;4.60;2.45;;;18.10;58.70;;;;;;4932373;29;20262;-86
2023/12/10 14:15:00;;;;;;;3.78;2.33;;;18.10;58.10;;;;;;4944208;29;20186;-86
2023/12/10 14:18:05;;;;;;;3.47;1.70;;;18.00;58.50;;;;;;4918139;29;20199;-86
2023/12/10 14:21:10;;;;;;;4.20;1.70;;;18.10;59.10;;;;;;4924205;29;20287;-85
2023/12/10 14:24:03;;;;;;;5.95;2.45;;;18.10;58.60;;;;;;4879779;29;20184;-85
2023/12/10 14:26:40;;;;;;;4.97;2.03;;;18.20;57.50;;;;;;4899231;29;20196;-87
2023/12/10 14:29:14;;;;;;;3.42;2.47;;;18.30;58.50;;;;;;4888845;29;20192;-86
2023/12/10 14:31:43;;;;;;;5.18;2.22;;;18.30;57.10;;;;;;4895099;29;20256;-86
2023/12/10 14:34:27;;;;;;;8.88;2.55;;;18.30;57.50;;;;;;4928403;29;20206;-86
2023/12/10 14:37:04;;;;;;;3.90;2.08;;;18.30;57.70;;;;;;4961758;28;20237;-86
2023/12/10 14:39:39;;;;;;;3.60;2.42;;;18.30;57.60;;;;;;4943936;29;20186;-87
2023/12/10 14:42:10;;;;;;;4.00;2.20;;;18.30;57.60;;;;;;4939207;29;20178;-85
2023/12/10 14:44:43;;;;;;;4.32;2.35;;;18.30;58.40;;;;;;4934455;29;20688;-85
2023/12/10 14:47:11;;;;;;;6.13;2.20;;;18.20;58.00;;;;;;4970246;28;20180;-85
2023/12/10 14:49:38;;;;;;;3.63;2.00;;;18.20;58.90;;;;;;4965107;28;20247;-86
2023/12/10 14:52:35;;;;;;;6.22;2.60;;;18.20;59.20;;;;;;4971941;28;20160;-87
2023/12/10 14:55:54;;;;;;;3.10;1.95;;;18.20;58.30;;;;;;4965092;29;20196;-87
2023/12/10 14:58:25;;;;;;;5.00;2.60;;;18.20;58.90;;;;;;4927497;29;20186;-86